Accueil
Images satellite Prévisions 15 joursClimatMétéo marine Cyclones Foudre AéroportsFAQ Actualités A propos
Météo : Europe Afrique Amérique du Nord Amérique du Sud Asie Australie-Océanie Autres
Langues Contact

Biarritz, France

Anglet

latitude: 43-28N, longitude: 001-32W, altitude: 75 m


METAR: LFBZ 250300Z AUTO 19002KT 9999 BKN008 14/11 Q1019
TAF: LFBZ 250311Z 2503/2524 24005KT CAVOK TEMPO 2503/2506 MIFG BKN005 TEMPO 2516/2524 BKN005

Heure: 05:26 (03:26 UTC)

Observation

Le bulletin a été fait il y a 26 minutes, à 03:00 UTC
Vent 2 kt de sud
Température 14°C
Humidité 82%
Pression 1019 hPa
Visibilité 10 km ou plus
Nuages fragmentés à une hauteur de 800 ft

Changer d'unités

Prévision

Le bulletin a été fait il y a 15 minutes, à 03:11 UTC
Prévision valable du 25 à 03 UTC au 25 à 24 UTC
Vent 5 kt de ouest/sud-ouest
Visibilité 10 km ou plus
pas de nuages en-dessous de 1500 mètres et pas de cumulonimbus.
Temporairement
du 25 à 03 UTC au 25 à 06 UTC
Nuages fragmentés à une hauteur de 500 ft
mince brouillard
Temporairement
du 25 à 16 UTC au 25 à 24 UTC
Nuages fragmentés à une hauteur de 500 ft
Les informations qui figurent sur ce site font l'objet d'une clause de non-responsabilité
Météo : Europe Afrique Amérique du Nord Amérique du Sud Asie Australie-Océanie Autres
Images satellite Prévisions 15 joursClimatMétéo marine Cyclones Foudre AéroportsFAQ Langues Contact Actualités A propos